sensor_id;sensor_type;location;lat;lon;timestamp;temperature;humidity
47022;DHT22;32779;52.264;6.154;2023-11-22T00:01:20;3.40;99.90
47022;DHT22;32779;52.264;6.154;2023-11-22T00:03:46;3.40;99.90
47022;DHT22;32779;52.264;6.154;2023-11-22T00:06:11;3.30;99.90
47022;DHT22;32779;52.264;6.154;2023-11-22T00:08:37;3.30;99.90
47022;DHT22;32779;52.264;6.154;2023-11-22T00:11:03;3.30;99.90
47022;DHT22;32779;52.264;6.154;2023-11-22T00:13:29;3.30;99.90
47022;DHT22;32779;52.264;6.154;2023-11-22T00:15:55;3.30;99.90
47022;DHT22;32779;52.264;6.154;2023-11-22T00:18:22;3.30;99.90
47022;DHT22;32779;52.264;6.154;2023-11-22T00:20:48;3.20;99.90
47022;DHT22;32779;52.264;6.154;2023-11-22T00:23:14;3.20;99.90
47022;DHT22;32779;52.264;6.154;2023-11-22T00:25:40;3.20;99.90
47022;DHT22;32779;52.264;6.154;2023-11-22T00:28:05;3.20;99.90
47022;DHT22;32779;52.264;6.154;2023-11-22T00:30:32;3.20;99.90
47022;DHT22;32779;52.264;6.154;2023-11-22T00:32:58;3.20;99.90
47022;DHT22;32779;52.264;6.154;2023-11-22T00:35:24;3.10;99.90
47022;DHT22;32779;52.264;6.154;2023-11-22T00:37:49;3.10;99.90
47022;DHT22;32779;52.264;6.154;2023-11-22T00:40:16;3.10;99.90
47022;DHT22;32779;52.264;6.154;2023-11-22T00:42:42;3.20;99.90
47022;DHT22;32779;52.264;6.154;2023-11-22T00:45:09;3.20;99.90
47022;DHT22;32779;52.264;6.154;2023-11-22T00:47:35;3.20;99.90
47022;DHT22;32779;52.264;6.154;2023-11-22T00:50:02;3.10;99.90
47022;DHT22;32779;52.264;6.154;2023-11-22T00:52:30;3.20;99.90
47022;DHT22;32779;52.264;6.154;2023-11-22T00:54:56;3.10;99.90
47022;DHT22;32779;52.264;6.154;2023-11-22T00:57:21;3.10;99.90
47022;DHT22;32779;52.264;6.154;2023-11-22T00:59:47;3.10;99.90
47022;DHT22;32779;52.264;6.154;2023-11-22T01:02:13;3.00;99.90
47022;DHT22;32779;52.264;6.154;2023-11-22T01:04:39;3.00;99.90
47022;DHT22;32779;52.264;6.154;2023-11-22T01:07:05;3.00;99.90
47022;DHT22;32779;52.264;6.154;2023-11-22T01:09:32;2.90;99.90
47022;DHT22;32779;52.264;6.154;2023-11-22T01:11:58;2.90;99.90
47022;DHT22;32779;52.264;6.154;2023-11-22T01:14:24;2.80;99.90
47022;DHT22;32779;52.264;6.154;2023-11-22T01:16:51;2.80;99.90
47022;DHT22;32779;52.264;6.154;2023-11-22T01:19:17;2.70;99.90
47022;DHT22;32779;52.264;6.154;2023-11-22T01:21:42;2.80;99.90
47022;DHT22;32779;52.264;6.154;2023-11-22T01:24:08;2.70;99.90
47022;DHT22;32779;52.264;6.154;2023-11-22T01:26:34;2.70;99.90
47022;DHT22;32779;52.264;6.154;2023-11-22T01:29:00;2.70;99.90
47022;DHT22;32779;52.264;6.154;2023-11-22T01:31:25;2.70;99.90
47022;DHT22;32779;52.264;6.154;2023-11-22T01:33:54;2.70;99.90
47022;DHT22;32779;52.264;6.154;2023-11-22T01:36:20;2.70;99.90
47022;DHT22;32779;52.264;6.154;2023-11-22T01:38:46;2.70;99.90
47022;DHT22;32779;52.264;6.154;2023-11-22T01:41:14;2.70;99.90
47022;DHT22;32779;52.264;6.154;2023-11-22T01:43:40;2.80;99.90
47022;DHT22;32779;52.264;6.154;2023-11-22T01:46:23;2.80;99.90
47022;DHT22;32779;52.264;6.154;2023-11-22T01:48:49;2.80;99.90
47022;DHT22;32779;52.264;6.154;2023-11-22T01:51:16;2.90;99.90
47022;DHT22;32779;52.264;6.154;2023-11-22T01:53:42;2.90;99.90
47022;DHT22;32779;52.264;6.154;2023-11-22T01:56:08;2.90;99.90
47022;DHT22;32779;52.264;6.154;2023-11-22T01:58:34;2.90;99.90
47022;DHT22;32779;52.264;6.154;2023-11-22T02:01:01;2.90;99.90
47022;DHT22;32779;52.264;6.154;2023-11-22T02:03:27;2.90;99.90
47022;DHT22;32779;52.264;6.154;2023-11-22T02:05:53;2.90;99.90
47022;DHT22;32779;52.264;6.154;2023-11-22T02:08:19;2.90;99.90
47022;DHT22;32779;52.264;6.154;2023-11-22T02:10:45;2.90;99.90
47022;DHT22;32779;52.264;6.154;2023-11-22T02:13:14;2.80;99.90
47022;DHT22;32779;52.264;6.154;2023-11-22T02:15:40;2.80;99.90
47022;DHT22;32779;52.264;6.154;2023-11-22T02:18:05;2.80;99.90
47022;DHT22;32779;52.264;6.154;2023-11-22T02:20:32;2.70;99.90
47022;DHT22;32779;52.264;6.154;2023-11-22T02:23:03;2.60;99.90
47022;DHT22;32779;52.264;6.154;2023-11-22T02:25:32;2.60;99.90
47022;DHT22;32779;52.264;6.154;2023-11-22T02:27:59;2.60;99.90
47022;DHT22;32779;52.264;6.154;2023-11-22T02:30:25;2.50;99.90
47022;DHT22;32779;52.264;6.154;2023-11-22T02:32:51;2.50;99.90
47022;DHT22;32779;52.264;6.154;2023-11-22T02:35:16;2.40;99.90
47022;DHT22;32779;52.264;6.154;2023-11-22T02:37:43;2.40;99.90
47022;DHT22;32779;52.264;6.154;2023-11-22T02:40:21;2.40;99.90
47022;DHT22;32779;52.264;6.154;2023-11-22T02:42:50;2.30;99.90
47022;DHT22;32779;52.264;6.154;2023-11-22T02:45:20;2.30;99.90
47022;DHT22;32779;52.264;6.154;2023-11-22T02:47:48;2.20;99.90
47022;DHT22;32779;52.264;6.154;2023-11-22T02:50:15;2.10;99.90
47022;DHT22;32779;52.264;6.154;2023-11-22T02:52:41;2.10;99.90
47022;DHT22;32779;52.264;6.154;2023-11-22T02:55:08;2.10;99.90
47022;DHT22;32779;52.264;6.154;2023-11-22T02:57:37;2.10;99.90
47022;DHT22;32779;52.264;6.154;2023-11-22T03:00:06;2.10;99.90
47022;DHT22;32779;52.264;6.154;2023-11-22T03:02:33;2.10;99.90
47022;DHT22;32779;52.264;6.154;2023-11-22T03:04:58;2.10;99.90
47022;DHT22;32779;52.264;6.154;2023-11-22T03:07:25;2.10;99.90
47022;DHT22;32779;52.264;6.154;2023-11-22T03:09:51;2.10;99.90
47022;DHT22;32779;52.264;6.154;2023-11-22T03:12:19;2.00;99.90
47022;DHT22;32779;52.264;6.154;2023-11-22T03:14:46;2.00;99.90
47022;DHT22;32779;52.264;6.154;2023-11-22T03:17:11;2.00;99.90
47022;DHT22;32779;52.264;6.154;2023-11-22T03:19:40;1.90;99.90
47022;DHT22;32779;52.264;6.154;2023-11-22T03:22:06;1.80;99.90
47022;DHT22;32779;52.264;6.154;2023-11-22T03:24:32;1.80;99.90
47022;DHT22;32779;52.264;6.154;2023-11-22T03:27:02;1.80;99.90
47022;DHT22;32779;52.264;6.154;2023-11-22T03:29:29;1.80;99.90
47022;DHT22;32779;52.264;6.154;2023-11-22T03:31:55;1.80;99.90
47022;DHT22;32779;52.264;6.154;2023-11-22T03:34:20;1.70;99.90
47022;DHT22;32779;52.264;6.154;2023-11-22T03:36:46;1.80;99.90
47022;DHT22;32779;52.264;6.154;2023-11-22T03:39:12;1.70;99.90
47022;DHT22;32779;52.264;6.154;2023-11-22T03:41:40;1.80;99.90
47022;DHT22;32779;52.264;6.154;2023-11-22T03:44:06;1.80;99.90
47022;DHT22;32779;52.264;6.154;2023-11-22T03:46:37;1.70;99.90
47022;DHT22;32779;52.264;6.154;2023-11-22T03:49:04;1.70;99.90
47022;DHT22;32779;52.264;6.154;2023-11-22T03:51:30;1.70;99.90
47022;DHT22;32779;52.264;6.154;2023-11-22T03:53:56;1.70;99.90
47022;DHT22;32779;52.264;6.154;2023-11-22T03:56:21;1.70;99.90
47022;DHT22;32779;52.264;6.154;2023-11-22T03:58:47;1.70;99.90
47022;DHT22;32779;52.264;6.154;2023-11-22T04:01:14;1.70;99.90
47022;DHT22;32779;52.264;6.154;2023-11-22T04:03:41;1.60;99.90
47022;DHT22;32779;52.264;6.154;2023-11-22T04:06:07;1.70;99.90
47022;DHT22;32779;52.264;6.154;2023-11-22T04:08:32;1.60;99.90
47022;DHT22;32779;52.264;6.154;2023-11-22T04:10:58;1.60;99.90
47022;DHT22;32779;52.264;6.154;2023-11-22T04:13:24;1.60;99.90
47022;DHT22;32779;52.264;6.154;2023-11-22T04:15:50;1.50;99.90
47022;DHT22;32779;52.264;6.154;2023-11-22T04:18:16;1.50;99.90
47022;DHT22;32779;52.264;6.154;2023-11-22T04:20:42;1.50;99.90
47022;DHT22;32779;52.264;6.154;2023-11-22T04:23:08;1.50;99.90
47022;DHT22;32779;52.264;6.154;2023-11-22T04:25:37;1.40;99.90
47022;DHT22;32779;52.264;6.154;2023-11-22T04:28:03;1.40;99.90
47022;DHT22;32779;52.264;6.154;2023-11-22T04:30:28;1.40;99.90
47022;DHT22;32779;52.264;6.154;2023-11-22T04:32:54;1.40;99.90
47022;DHT22;32779;52.264;6.154;2023-11-22T04:35:20;1.30;99.90
47022;DHT22;32779;52.264;6.154;2023-11-22T04:37:46;1.30;99.90
47022;DHT22;32779;52.264;6.154;2023-11-22T04:40:12;1.30;99.90
47022;DHT22;32779;52.264;6.154;2023-11-22T04:42:40;1.30;99.90
47022;DHT22;32779;52.264;6.154;2023-11-22T04:45:06;1.30;99.90
47022;DHT22;32779;52.264;6.154;2023-11-22T04:47:32;1.30;99.90
47022;DHT22;32779;52.264;6.154;2023-11-22T04:49:58;1.30;99.90
47022;DHT22;32779;52.264;6.154;2023-11-22T04:52:23;1.30;99.90
47022;DHT22;32779;52.264;6.154;2023-11-22T04:54:49;1.30;99.90
47022;DHT22;32779;52.264;6.154;2023-11-22T04:57:15;1.20;99.90
47022;DHT22;32779;52.264;6.154;2023-11-22T04:59:41;1.30;99.90
47022;DHT22;32779;52.264;6.154;2023-11-22T05:02:06;1.30;99.90
47022;DHT22;32779;52.264;6.154;2023-11-22T05:04:33;1.20;99.90
47022;DHT22;32779;52.264;6.154;2023-11-22T05:06:58;1.20;99.90
47022;DHT22;32779;52.264;6.154;2023-11-22T05:09:24;1.20;99.90
47022;DHT22;32779;52.264;6.154;2023-11-22T05:11:50;1.20;99.90
47022;DHT22;32779;52.264;6.154;2023-11-22T05:14:17;1.20;99.90
47022;DHT22;32779;52.264;6.154;2023-11-22T05:16:43;1.10;99.90
47022;DHT22;32779;52.264;6.154;2023-11-22T05:19:08;1.10;99.90
47022;DHT22;32779;52.264;6.154;2023-11-22T05:21:34;1.20;99.90
47022;DHT22;32779;52.264;6.154;2023-11-22T05:24:00;1.20;99.90
47022;DHT22;32779;52.264;6.154;2023-11-22T05:26:25;1.10;99.90
47022;DHT22;32779;52.264;6.154;2023-11-22T05:28:52;1.10;99.90
47022;DHT22;32779;52.264;6.154;2023-11-22T05:31:20;1.00;99.90
47022;DHT22;32779;52.264;6.154;2023-11-22T05:33:46;1.00;99.90
47022;DHT22;32779;52.264;6.154;2023-11-22T05:36:11;1.00;99.90
47022;DHT22;32779;52.264;6.154;2023-11-22T05:38:37;1.10;99.90
47022;DHT22;32779;52.264;6.154;2023-11-22T05:41:03;1.10;99.90
47022;DHT22;32779;52.264;6.154;2023-11-22T05:43:29;1.10;99.90
47022;DHT22;32779;52.264;6.154;2023-11-22T05:45:55;1.10;99.90
47022;DHT22;32779;52.264;6.154;2023-11-22T05:48:21;1.00;99.90
47022;DHT22;32779;52.264;6.154;2023-11-22T05:50:47;1.00;99.90
47022;DHT22;32779;52.264;6.154;2023-11-22T05:53:13;1.10;99.90
47022;DHT22;32779;52.264;6.154;2023-11-22T05:55:45;1.10;99.90
47022;DHT22;32779;52.264;6.154;2023-11-22T05:58:13;1.20;99.90
47022;DHT22;32779;52.264;6.154;2023-11-22T06:00:42;1.20;99.90
47022;DHT22;32779;52.264;6.154;2023-11-22T06:03:08;1.10;99.90
47022;DHT22;32779;52.264;6.154;2023-11-22T06:05:34;1.10;99.90
47022;DHT22;32779;52.264;6.154;2023-11-22T06:07:59;1.10;99.90
47022;DHT22;32779;52.264;6.154;2023-11-22T06:10:25;1.10;99.90
47022;DHT22;32779;52.264;6.154;2023-11-22T06:12:52;1.10;99.90
47022;DHT22;32779;52.264;6.154;2023-11-22T06:15:17;1.10;99.90
47022;DHT22;32779;52.264;6.154;2023-11-22T06:17:46;1.10;99.90
47022;DHT22;32779;52.264;6.154;2023-11-22T06:20:12;1.10;99.90
47022;DHT22;32779;52.264;6.154;2023-11-22T06:22:38;1.10;99.90
47022;DHT22;32779;52.264;6.154;2023-11-22T06:25:10;1.10;99.90
47022;DHT22;32779;52.264;6.154;2023-11-22T06:27:39;1.20;99.90
47022;DHT22;32779;52.264;6.154;2023-11-22T06:30:06;1.20;99.90
47022;DHT22;32779;52.264;6.154;2023-11-22T06:32:34;1.20;99.90
47022;DHT22;32779;52.264;6.154;2023-11-22T06:35:00;1.20;99.90
47022;DHT22;32779;52.264;6.154;2023-11-22T06:37:26;1.20;99.90
47022;DHT22;32779;52.264;6.154;2023-11-22T06:39:52;1.20;99.90
47022;DHT22;32779;52.264;6.154;2023-11-22T06:42:18;1.20;99.90
47022;DHT22;32779;52.264;6.154;2023-11-22T06:44:47;1.20;99.90
47022;DHT22;32779;52.264;6.154;2023-11-22T06:47:13;1.30;99.90
47022;DHT22;32779;52.264;6.154;2023-11-22T06:49:39;1.30;99.90
47022;DHT22;32779;52.264;6.154;2023-11-22T06:52:05;1.30;99.90
47022;DHT22;32779;52.264;6.154;2023-11-22T06:54:30;1.30;99.90
47022;DHT22;32779;52.264;6.154;2023-11-22T06:56:57;1.30;99.90
47022;DHT22;32779;52.264;6.154;2023-11-22T06:59:22;1.40;99.90
47022;DHT22;32779;52.264;6.154;2023-11-22T07:01:48;1.40;99.90
47022;DHT22;32779;52.264;6.154;2023-11-22T07:04:14;1.40;99.90
47022;DHT22;32779;52.264;6.154;2023-11-22T07:06:39;1.50;99.90
47022;DHT22;32779;52.264;6.154;2023-11-22T07:09:05;1.60;99.90
47022;DHT22;32779;52.264;6.154;2023-11-22T07:11:35;1.60;99.90
47022;DHT22;32779;52.264;6.154;2023-11-22T07:14:02;1.60;99.90
47022;DHT22;32779;52.264;6.154;2023-11-22T07:16:29;1.80;99.90
47022;DHT22;32779;52.264;6.154;2023-11-22T07:18:56;1.80;99.90
47022;DHT22;32779;52.264;6.154;2023-11-22T07:21:22;1.90;99.90
47022;DHT22;32779;52.264;6.154;2023-11-22T07:23:48;1.90;99.90
47022;DHT22;32779;52.264;6.154;2023-11-22T07:26:14;2.00;99.90
47022;DHT22;32779;52.264;6.154;2023-11-22T07:28:40;2.00;99.90
47022;DHT22;32779;52.264;6.154;2023-11-22T07:31:09;2.00;99.90
47022;DHT22;32779;52.264;6.154;2023-11-22T07:33:35;2.10;99.90
47022;DHT22;32779;52.264;6.154;2023-11-22T07:36:01;2.10;99.90
47022;DHT22;32779;52.264;6.154;2023-11-22T07:38:28;2.10;99.90
47022;DHT22;32779;52.264;6.154;2023-11-22T07:40:55;2.10;99.90
47022;DHT22;32779;52.264;6.154;2023-11-22T07:43:22;2.10;99.90
47022;DHT22;32779;52.264;6.154;2023-11-22T07:45:48;2.10;99.90
47022;DHT22;32779;52.264;6.154;2023-11-22T07:48:16;2.20;99.90
47022;DHT22;32779;52.264;6.154;2023-11-22T07:50:42;2.20;99.90
47022;DHT22;32779;52.264;6.154;2023-11-22T07:53:11;2.30;99.90
47022;DHT22;32779;52.264;6.154;2023-11-22T07:55:38;2.40;99.90
47022;DHT22;32779;52.264;6.154;2023-11-22T07:58:03;2.40;99.90
47022;DHT22;32779;52.264;6.154;2023-11-22T08:00:32;2.50;99.90
47022;DHT22;32779;52.264;6.154;2023-11-22T08:02:59;2.60;99.90
47022;DHT22;32779;52.264;6.154;2023-11-22T08:05:26;2.60;99.90
47022;DHT22;32779;52.264;6.154;2023-11-22T08:07:53;2.70;99.90
47022;DHT22;32779;52.264;6.154;2023-11-22T08:10:19;2.70;99.90
47022;DHT22;32779;52.264;6.154;2023-11-22T08:12:48;2.80;99.90
47022;DHT22;32779;52.264;6.154;2023-11-22T08:15:17;2.80;99.90
47022;DHT22;32779;52.264;6.154;2023-11-22T08:17:44;2.90;99.90
47022;DHT22;32779;52.264;6.154;2023-11-22T08:20:10;3.00;99.90
47022;DHT22;32779;52.264;6.154;2023-11-22T08:22:44;3.00;99.90
47022;DHT22;32779;52.264;6.154;2023-11-22T08:25:11;3.00;99.90
47022;DHT22;32779;52.264;6.154;2023-11-22T08:27:40;3.10;99.90
47022;DHT22;32779;52.264;6.154;2023-11-22T08:30:09;3.20;99.90
47022;DHT22;32779;52.264;6.154;2023-11-22T08:32:39;3.20;99.90
47022;DHT22;32779;52.264;6.154;2023-11-22T08:35:07;3.20;99.90
47022;DHT22;32779;52.264;6.154;2023-11-22T08:37:34;3.20;99.90
47022;DHT22;32779;52.264;6.154;2023-11-22T08:40:01;3.30;99.90
47022;DHT22;32779;52.264;6.154;2023-11-22T08:42:26;3.40;99.90
47022;DHT22;32779;52.264;6.154;2023-11-22T08:44:53;3.40;99.90
47022;DHT22;32779;52.264;6.154;2023-11-22T08:47:18;3.40;99.90
47022;DHT22;32779;52.264;6.154;2023-11-22T08:49:44;3.40;99.90
47022;DHT22;32779;52.264;6.154;2023-11-22T08:52:10;3.40;99.90
47022;DHT22;32779;52.264;6.154;2023-11-22T08:54:37;3.40;99.90
47022;DHT22;32779;52.264;6.154;2023-11-22T08:57:03;3.50;99.90
47022;DHT22;32779;52.264;6.154;2023-11-22T08:59:28;3.50;99.90
47022;DHT22;32779;52.264;6.154;2023-11-22T09:01:54;3.50;99.90
47022;DHT22;32779;52.264;6.154;2023-11-22T09:04:20;3.50;99.90
47022;DHT22;32779;52.264;6.154;2023-11-22T09:06:45;3.60;99.90
47022;DHT22;32779;52.264;6.154;2023-11-22T09:09:13;3.60;99.90
47022;DHT22;32779;52.264;6.154;2023-11-22T09:11:41;3.60;99.90
47022;DHT22;32779;52.264;6.154;2023-11-22T09:14:07;3.60;99.90
47022;DHT22;32779;52.264;6.154;2023-11-22T09:16:38;3.60;99.90
47022;DHT22;32779;52.264;6.154;2023-11-22T09:19:05;3.70;99.90
47022;DHT22;32779;52.264;6.154;2023-11-22T09:21:32;3.70;99.90
47022;DHT22;32779;52.264;6.154;2023-11-22T09:23:58;3.70;99.90
47022;DHT22;32779;52.264;6.154;2023-11-22T09:26:24;3.80;99.90
47022;DHT22;32779;52.264;6.154;2023-11-22T09:28:50;3.80;99.90
47022;DHT22;32779;52.264;6.154;2023-11-22T09:31:16;3.80;99.90
47022;DHT22;32779;52.264;6.154;2023-11-22T09:33:45;3.90;99.90
47022;DHT22;32779;52.264;6.154;2023-11-22T09:36:12;3.90;99.90
47022;DHT22;32779;52.264;6.154;2023-11-22T09:38:39;3.90;99.90
47022;DHT22;32779;52.264;6.154;2023-11-22T09:41:04;4.00;99.90
47022;DHT22;32779;52.264;6.154;2023-11-22T09:43:31;4.00;99.90
47022;DHT22;32779;52.264;6.154;2023-11-22T09:45:56;4.10;99.90
47022;DHT22;32779;52.264;6.154;2023-11-22T09:48:23;4.10;99.90
47022;DHT22;32779;52.264;6.154;2023-11-22T09:51:15;4.20;99.90
47022;DHT22;32779;52.264;6.154;2023-11-22T09:56:22;4.20;99.90
47022;DHT22;32779;52.264;6.154;2023-11-22T09:58:51;4.30;99.90
47022;DHT22;32779;52.264;6.154;2023-11-22T10:01:21;4.20;99.90
47022;DHT22;32779;52.264;6.154;2023-11-22T10:03:48;4.20;99.90
47022;DHT22;32779;52.264;6.154;2023-11-22T10:06:13;4.30;99.90
47022;DHT22;32779;52.264;6.154;2023-11-22T10:08:40;4.30;99.90
47022;DHT22;32779;52.264;6.154;2023-11-22T10:11:07;4.40;99.90
47022;DHT22;32779;52.264;6.154;2023-11-22T10:13:33;4.40;99.90
47022;DHT22;32779;52.264;6.154;2023-11-22T10:16:10;4.40;99.90
47022;DHT22;32779;52.264;6.154;2023-11-22T10:18:42;4.50;99.90
47022;DHT22;32779;52.264;6.154;2023-11-22T10:21:24;4.50;99.90
47022;DHT22;32779;52.264;6.154;2023-11-22T10:23:53;4.50;99.90
47022;DHT22;32779;52.264;6.154;2023-11-22T10:26:19;4.60;99.90
47022;DHT22;32779;52.264;6.154;2023-11-22T10:28:45;4.60;99.90
47022;DHT22;32779;52.264;6.154;2023-11-22T10:31:10;4.70;99.90
47022;DHT22;32779;52.264;6.154;2023-11-22T10:33:40;4.70;99.90
47022;DHT22;32779;52.264;6.154;2023-11-22T10:36:09;4.80;99.90
47022;DHT22;32779;52.264;6.154;2023-11-22T10:38:35;4.80;99.90
47022;DHT22;32779;52.264;6.154;2023-11-22T10:41:07;4.90;99.90
47022;DHT22;32779;52.264;6.154;2023-11-22T10:43:34;4.90;99.90
47022;DHT22;32779;52.264;6.154;2023-11-22T10:46:02;4.90;99.90
47022;DHT22;32779;52.264;6.154;2023-11-22T10:48:28;4.90;99.90
47022;DHT22;32779;52.264;6.154;2023-11-22T10:51:04;4.90;99.90
47022;DHT22;32779;52.264;6.154;2023-11-22T10:53:37;4.90;99.90
47022;DHT22;32779;52.264;6.154;2023-11-22T10:56:16;4.90;99.90
47022;DHT22;32779;52.264;6.154;2023-11-22T10:58:49;4.90;99.90
47022;DHT22;32779;52.264;6.154;2023-11-22T11:01:19;4.90;99.90
47022;DHT22;32779;52.264;6.154;2023-11-22T11:03:51;4.90;99.90
47022;DHT22;32779;52.264;6.154;2023-11-22T11:06:24;4.90;99.90
47022;DHT22;32779;52.264;6.154;2023-11-22T11:08:58;4.80;99.90
47022;DHT22;32779;52.264;6.154;2023-11-22T11:11:25;4.80;99.90
47022;DHT22;32779;52.264;6.154;2023-11-22T11:13:55;4.80;99.90
47022;DHT22;32779;52.264;6.154;2023-11-22T11:16:22;4.90;99.90
47022;DHT22;32779;52.264;6.154;2023-11-22T11:18:49;4.90;99.90
47022;DHT22;32779;52.264;6.154;2023-11-22T11:21:15;4.90;99.90
47022;DHT22;32779;52.264;6.154;2023-11-22T11:23:41;5.00;99.90
47022;DHT22;32779;52.264;6.154;2023-11-22T11:26:17;5.00;99.90
47022;DHT22;32779;52.264;6.154;2023-11-22T11:28:46;5.00;99.90
47022;DHT22;32779;52.264;6.154;2023-11-22T11:31:16;5.00;99.90
47022;DHT22;32779;52.264;6.154;2023-11-22T11:36:38;5.00;99.90
47022;DHT22;32779;52.264;6.154;2023-11-22T11:39:07;4.90;99.90
47022;DHT22;32779;52.264;6.154;2023-11-22T11:41:41;5.00;99.90
47022;DHT22;32779;52.264;6.154;2023-11-22T11:44:10;5.00;99.90
47022;DHT22;32779;52.264;6.154;2023-11-22T11:46:38;5.00;99.90
47022;DHT22;32779;52.264;6.154;2023-11-22T11:49:06;5.00;99.90
47022;DHT22;32779;52.264;6.154;2023-11-22T11:51:33;5.00;99.90
47022;DHT22;32779;52.264;6.154;2023-11-22T11:53:59;5.00;99.90
47022;DHT22;32779;52.264;6.154;2023-11-22T11:56:24;5.00;99.90
47022;DHT22;32779;52.264;6.154;2023-11-22T11:58:53;5.00;99.90
47022;DHT22;32779;52.264;6.154;2023-11-22T12:01:23;5.10;99.90
47022;DHT22;32779;52.264;6.154;2023-11-22T12:03:49;5.10;99.90
47022;DHT22;32779;52.264;6.154;2023-11-22T12:06:15;5.10;99.90
47022;DHT22;32779;52.264;6.154;2023-11-22T12:08:42;5.10;99.90
47022;DHT22;32779;52.264;6.154;2023-11-22T12:11:08;5.10;99.90
47022;DHT22;32779;52.264;6.154;2023-11-22T12:13:34;5.20;99.90
47022;DHT22;32779;52.264;6.154;2023-11-22T12:16:01;5.20;99.90
47022;DHT22;32779;52.264;6.154;2023-11-22T12:18:29;5.20;99.90
47022;DHT22;32779;52.264;6.154;2023-11-22T12:20:58;5.30;99.90
47022;DHT22;32779;52.264;6.154;2023-11-22T12:23:25;5.30;99.90
47022;DHT22;32779;52.264;6.154;2023-11-22T12:26:01;5.30;99.90
47022;DHT22;32779;52.264;6.154;2023-11-22T12:28:29;5.40;99.90
47022;DHT22;32779;52.264;6.154;2023-11-22T12:31:05;5.40;99.90
47022;DHT22;32779;52.264;6.154;2023-11-22T12:33:31;5.40;99.90
47022;DHT22;32779;52.264;6.154;2023-11-22T12:35:57;5.50;99.90
47022;DHT22;32779;52.264;6.154;2023-11-22T12:38:23;5.50;99.90
47022;DHT22;32779;52.264;6.154;2023-11-22T12:40:51;5.50;99.90
47022;DHT22;32779;52.264;6.154;2023-11-22T12:43:17;5.60;99.90
47022;DHT22;32779;52.264;6.154;2023-11-22T12:45:42;5.60;99.90
47022;DHT22;32779;52.264;6.154;2023-11-22T12:48:24;5.60;99.90
47022;DHT22;32779;52.264;6.154;2023-11-22T12:50:50;5.70;99.90
47022;DHT22;32779;52.264;6.154;2023-11-22T12:53:16;5.80;99.90
47022;DHT22;32779;52.264;6.154;2023-11-22T12:55:49;5.80;99.90
47022;DHT22;32779;52.264;6.154;2023-11-22T12:58:17;5.90;99.90
47022;DHT22;32779;52.264;6.154;2023-11-22T13:00:44;5.90;99.90
47022;DHT22;32779;52.264;6.154;2023-11-22T13:03:10;6.00;99.90
47022;DHT22;32779;52.264;6.154;2023-11-22T13:05:36;6.00;99.90
47022;DHT22;32779;52.264;6.154;2023-11-22T13:08:02;6.00;99.90
47022;DHT22;32779;52.264;6.154;2023-11-22T13:10:29;6.00;99.90
47022;DHT22;32779;52.264;6.154;2023-11-22T13:12:56;6.00;99.90
47022;DHT22;32779;52.264;6.154;2023-11-22T13:15:22;6.00;99.90
47022;DHT22;32779;52.264;6.154;2023-11-22T13:17:54;6.00;99.90
47022;DHT22;32779;52.264;6.154;2023-11-22T13:20:27;6.00;99.90
47022;DHT22;32779;52.264;6.154;2023-11-22T13:22:54;5.90;99.90
47022;DHT22;32779;52.264;6.154;2023-11-22T13:25:23;6.00;99.90
47022;DHT22;32779;52.264;6.154;2023-11-22T13:27:52;5.90;99.90
47022;DHT22;32779;52.264;6.154;2023-11-22T13:30:19;5.80;99.90
47022;DHT22;32779;52.264;6.154;2023-11-22T13:32:51;5.90;99.90
47022;DHT22;32779;52.264;6.154;2023-11-22T13:35:17;5.80;99.90
47022;DHT22;32779;52.264;6.154;2023-11-22T13:37:47;5.80;99.90
47022;DHT22;32779;52.264;6.154;2023-11-22T13:40:17;5.80;99.90
47022;DHT22;32779;52.264;6.154;2023-11-22T13:42:48;5.80;99.90
47022;DHT22;32779;52.264;6.154;2023-11-22T13:45:15;5.80;99.90
47022;DHT22;32779;52.264;6.154;2023-11-22T13:47:47;5.80;99.90
47022;DHT22;32779;52.264;6.154;2023-11-22T13:50:18;5.80;99.90
47022;DHT22;32779;52.264;6.154;2023-11-22T13:52:53;5.80;99.90
47022;DHT22;32779;52.264;6.154;2023-11-22T13:55:19;5.80;99.90
47022;DHT22;32779;52.264;6.154;2023-11-22T13:57:49;5.80;99.90
47022;DHT22;32779;52.264;6.154;2023-11-22T14:00:16;5.80;99.90
47022;DHT22;32779;52.264;6.154;2023-11-22T14:02:45;5.80;99.90
47022;DHT22;32779;52.264;6.154;2023-11-22T14:05:11;5.80;99.90
47022;DHT22;32779;52.264;6.154;2023-11-22T14:07:38;5.80;99.90
47022;DHT22;32779;52.264;6.154;2023-11-22T14:10:04;5.80;99.90
47022;DHT22;32779;52.264;6.154;2023-11-22T14:12:31;5.80;99.90
47022;DHT22;32779;52.264;6.154;2023-11-22T14:14:58;5.80;99.90
47022;DHT22;32779;52.264;6.154;2023-11-22T14:17:24;5.80;99.90
47022;DHT22;32779;52.264;6.154;2023-11-22T14:19:50;5.80;99.90
47022;DHT22;32779;52.264;6.154;2023-11-22T14:22:16;5.80;99.90
47022;DHT22;32779;52.264;6.154;2023-11-22T14:24:43;5.70;99.90
47022;DHT22;32779;52.264;6.154;2023-11-22T14:27:10;5.80;99.90
47022;DHT22;32779;52.264;6.154;2023-11-22T14:29:37;5.80;99.90
47022;DHT22;32779;52.264;6.154;2023-11-22T14:32:03;5.70;99.90
47022;DHT22;32779;52.264;6.154;2023-11-22T14:34:29;5.70;99.90
47022;DHT22;32779;52.264;6.154;2023-11-22T14:36:56;5.70;99.90
47022;DHT22;32779;52.264;6.154;2023-11-22T14:39:21;5.70;99.90
47022;DHT22;32779;52.264;6.154;2023-11-22T14:41:47;5.70;99.90
47022;DHT22;32779;52.264;6.154;2023-11-22T14:44:13;5.70;99.90
47022;DHT22;32779;52.264;6.154;2023-11-22T14:46:39;5.70;99.90
47022;DHT22;32779;52.264;6.154;2023-11-22T14:49:04;5.70;99.90
47022;DHT22;32779;52.264;6.154;2023-11-22T14:51:31;5.60;99.90
47022;DHT22;32779;52.264;6.154;2023-11-22T14:53:59;5.60;99.90
47022;DHT22;32779;52.264;6.154;2023-11-22T14:56:24;5.60;99.90
47022;DHT22;32779;52.264;6.154;2023-11-22T14:58:50;5.50;99.90
47022;DHT22;32779;52.264;6.154;2023-11-22T15:01:20;5.60;99.90
47022;DHT22;32779;52.264;6.154;2023-11-22T15:03:46;5.60;99.90
47022;DHT22;32779;52.264;6.154;2023-11-22T15:06:14;5.50;99.90
47022;DHT22;32779;52.264;6.154;2023-11-22T15:08:40;5.50;99.90
47022;DHT22;32779;52.264;6.154;2023-11-22T15:11:06;5.50;99.90
47022;DHT22;32779;52.264;6.154;2023-11-22T15:13:33;5.50;99.90
47022;DHT22;32779;52.264;6.154;2023-11-22T15:15:59;5.50;99.90
47022;DHT22;32779;52.264;6.154;2023-11-22T15:18:25;5.50;99.90
47022;DHT22;32779;52.264;6.154;2023-11-22T15:20:52;5.40;99.90
47022;DHT22;32779;52.264;6.154;2023-11-22T15:23:18;5.40;99.90
47022;DHT22;32779;52.264;6.154;2023-11-22T15:25:46;5.40;99.90
47022;DHT22;32779;52.264;6.154;2023-11-22T15:28:12;5.40;99.90
47022;DHT22;32779;52.264;6.154;2023-11-22T15:30:46;5.40;99.90
47022;DHT22;32779;52.264;6.154;2023-11-22T15:33:11;5.40;99.90
47022;DHT22;32779;52.264;6.154;2023-11-22T15:35:40;5.30;99.90
47022;DHT22;32779;52.264;6.154;2023-11-22T15:38:06;5.30;99.90
47022;DHT22;32779;52.264;6.154;2023-11-22T15:40:31;5.40;99.90
47022;DHT22;32779;52.264;6.154;2023-11-22T15:42:57;5.30;99.90
47022;DHT22;32779;52.264;6.154;2023-11-22T15:45:23;5.30;99.90
47022;DHT22;32779;52.264;6.154;2023-11-22T15:47:48;5.30;99.90
47022;DHT22;32779;52.264;6.154;2023-11-22T15:50:14;5.30;99.90